Time;durP1;ratioP1;P1;durP2;ratioP2;P2;SDS_P1;SDS_P2;PMS_P1;PMS_P2;Temp;Humidity;BMP_temperature;BMP_pressure;BME280_temperature;BME280_humidity;BME280_pressure;Samples;Min_cycle;Max_cycle;Signal;HPM_P1;HPM_P2
2024/04/06 00:00:19;;;;;;;42.28;11.63;;;;;;;;;;6178709;23;20025;-60
2024/04/06 00:02:52;;;;;;;138.23;15.35;;;;;;;;;;6177370;23;20028;-60
2024/04/06 00:05:24;;;;;;;103.30;12.43;;;;;;;;;;6176313;23;20380;-60
2024/04/06 00:07:51;;;;;;;133.98;16.55;;;;;;;;;;6178852;23;20462;-60
2024/04/06 00:10:23;;;;;;;170.52;18.25;;;;;;;;;;6177045;23;20055;-61
2024/04/06 00:12:50;;;;;;;58.63;13.77;;;;;;;;;;6178710;23;20024;-61
2024/04/06 00:15:29;;;;;;;60.00;14.10;;;;;;;;;;6177928;23;20029;-60
2024/04/06 00:17:56;;;;;;;90.03;14.63;;;;;;;;;;6179221;23;20024;-61
2024/04/06 00:20:22;;;;;;;261.13;20.93;;;;;;;;;;6179520;23;20017;-60
2024/04/06 00:23:15;;;;;;;108.78;15.15;;;;;;;;;;6176657;23;20848;-61
2024/04/06 00:26:01;;;;;;;120.20;15.40;;;;;;;;;;6178070;23;20354;-60
2024/04/06 00:28:54;;;;;;;44.83;11.10;;;;;;;;;;6178257;23;20044;-49
2024/04/06 00:31:40;;;;;;;123.95;15.15;;;;;;;;;;6177730;23;20025;-62
2024/04/06 00:34:33;;;;;;;32.45;9.70;;;;;;;;;;6177955;23;20032;-62
2024/04/06 00:37:19;;;;;;;33.83;10.15;;;;;;;;;;6177867;23;20021;-62
2024/04/06 00:40:12;;;;;;;72.28;12.05;;;;;;;;;;6177385;23;20021;-63
2024/04/06 00:42:58;;;;;;;378.48;21.92;;;;;;;;;;6177041;23;20068;-62
2024/04/06 00:45:51;;;;;;;98.00;12.70;;;;;;;;;;6176663;23;20090;-62
2024/04/06 00:48:37;;;;;;;65.78;15.00;;;;;;;;;;6178508;23;20017;-49
2024/04/06 00:51:30;;;;;;;107.47;15.48;;;;;;;;;;6176734;23;20021;-51
2024/04/06 00:54:17;;;;;;;180.85;15.52;;;;;;;;;;6177264;23;20025;-51
2024/04/06 00:57:09;;;;;;;571.25;35.67;;;;;;;;;;6177515;23;20028;-60
2024/04/06 01:00:02;;;;;;;614.25;33.83;;;;;;;;;;6178346;23;20017;-65
2024/04/06 01:02:55;;;;;;;127.95;18.23;;;;;;;;;;6178219;23;20028;-65
2024/04/06 01:05:47;;;;;;;259.98;20.48;;;;;;;;;;6178982;23;20024;-65
2024/04/06 01:08:34;;;;;;;793.55;41.30;;;;;;;;;;6178449;23;20778;-65
2024/04/06 01:11:27;;;;;;;751.45;38.92;;;;;;;;;;6176731;23;20021;-65
2024/04/06 01:14:13;;;;;;;540.38;31.10;;;;;;;;;;6178186;23;20028;-66
2024/04/06 01:17:12;;;;;;;607.95;36.17;;;;;;;;;;6178599;23;20075;-62
2024/04/06 01:19:58;;;;;;;410.52;28.95;;;;;;;;;;6177903;23;20021;-62
2024/04/06 01:22:52;;;;;;;519.85;33.33;;;;;;;;;;6146934;23;20020;-62
2024/04/06 01:25:38;;;;;;;299.27;21.25;;;;;;;;;;6147468;23;20539;-59
2024/04/06 01:28:31;;;;;;;603.42;39.60;;;;;;;;;;6148221;23;20475;-58
2024/04/06 01:31:17;;;;;;;266.27;20.92;;;;;;;;;;6146435;23;20494;-59
2024/04/06 01:34:10;;;;;;;226.18;21.30;;;;;;;;;;6147856;23;20018;-56
2024/04/06 01:37:03;;;;;;;609.58;36.25;;;;;;;;;;6146809;23;20036;-58
2024/04/06 01:39:55;;;;;;;609.78;32.55;;;;;;;;;;6146910;23;20347;-59
2024/04/06 01:42:42;;;;;;;548.05;30.75;;;;;;;;;;6147891;23;20414;-60
2024/04/06 01:45:34;;;;;;;708.67;42.60;;;;;;;;;;6146110;23;20021;-59
2024/04/06 01:48:21;;;;;;;766.38;40.35;;;;;;;;;;6147568;23;20029;-58
2024/04/06 01:51:13;;;;;;;497.52;28.17;;;;;;;;;;6147555;23;20021;-60
2024/04/06 01:54:07;;;;;;;690.78;40.05;;;;;;;;;;6148491;23;20467;-62
2024/04/06 01:56:59;;;;;;;562.83;32.75;;;;;;;;;;6150106;23;20021;-62
2024/04/06 01:59:53;;;;;;;125.15;18.35;;;;;;;;;;6148714;23;20032;-62
2024/04/06 02:02:45;;;;;;;405.90;23.92;;;;;;;;;;6148347;23;20406;-63
2024/04/06 02:05:32;;;;;;;489.58;28.88;;;;;;;;;;6146222;23;20395;-63
2024/04/06 02:08:25;;;;;;;698.72;36.65;;;;;;;;;;6147734;23;20466;-63
2024/04/06 02:11:11;;;;;;;251.10;20.77;;;;;;;;;;6148022;23;20021;-63
2024/04/06 02:14:03;;;;;;;333.90;21.73;;;;;;;;;;6148856;23;20025;-65
2024/04/06 02:17:04;;;;;;;570.15;30.98;;;;;;;;;;6147564;23;20021;-67
2024/04/06 02:19:50;;;;;;;229.77;21.23;;;;;;;;;;6146178;23;20025;-66
2024/04/06 02:22:49;;;;;;;375.90;23.33;;;;;;;;;;6145400;23;20036;-58
2024/04/06 02:25:35;;;;;;;123.10;14.52;;;;;;;;;;6175972;23;20024;-54
2024/04/06 02:28:29;;;;;;;190.20;20.33;;;;;;;;;;6177235;23;20028;-51
2024/04/06 02:31:15;;;;;;;129.73;16.08;;;;;;;;;;6176692;23;20017;-52
2024/04/06 02:34:08;;;;;;;646.00;34.78;;;;;;;;;;6177121;23;20017;-53
2024/04/06 02:37:00;;;;;;;455.90;28.73;;;;;;;;;;6176943;23;20082;-50
2024/04/06 02:39:54;;;;;;;733.42;37.58;;;;;;;;;;6177566;23;20029;-50
2024/04/06 02:42:47;;;;;;;918.10;48.65;;;;;;;;;;6176463;23;20025;-50
2024/04/06 02:45:33;;;;;;;445.83;28.63;;;;;;;;;;6176820;23;20040;-51
2024/04/06 02:48:26;;;;;;;654.55;34.22;;;;;;;;;;6177765;23;20020;-51
2024/04/06 02:51:13;;;;;;;816.25;39.08;;;;;;;;;;6178295;23;20343;-65
2024/04/06 02:54:05;;;;;;;474.08;27.42;;;;;;;;;;6178586;23;20021;-60
2024/04/06 02:56:59;;;;;;;368.17;22.92;;;;;;;;;;6177263;23;20599;-61
2024/04/06 02:59:45;;;;;;;239.38;18.83;;;;;;;;;;6175711;23;20458;-61
2024/04/06 03:02:38;;;;;;;954.25;50.53;;;;;;;;;;6176542;23;20024;-60
2024/04/06 03:05:30;;;;;;;611.13;33.97;;;;;;;;;;6177529;23;20017;-61
2024/04/06 03:08:17;;;;;;;370.65;24.42;;;;;;;;;;6177607;23;20032;-61
2024/04/06 03:11:09;;;;;;;974.88;47.63;;;;;;;;;;6177787;23;20017;-62
2024/04/06 03:13:56;;;;;;;856.40;47.08;;;;;;;;;;6174012;23;20031;-63
2024/04/06 03:16:49;;;;;;;610.15;29.23;;;;;;;;;;6176209;23;20021;-63
2024/04/06 03:19:41;;;;;;;598.58;35.08;;;;;;;;;;6175926;23;20401;-46
2024/04/06 03:22:41;;;;;;;606.00;31.95;;;;;;;;;;6174610;23;20020;-63
2024/04/06 03:25:28;;;;;;;368.55;22.63;;;;;;;;;;6175215;23;20367;-62
2024/04/06 03:28:21;;;;;;;341.35;19.58;;;;;;;;;;6177331;23;20017;-63
2024/04/06 03:31:07;;;;;;;777.00;40.22;;;;;;;;;;6177240;23;20024;-62
2024/04/06 03:33:59;;;;;;;712.92;35.92;;;;;;;;;;6178121;23;20528;-62
2024/04/06 03:36:46;;;;;;;906.25;46.33;;;;;;;;;;6177978;23;20334;-63
2024/04/06 03:39:38;;;;;;;863.40;39.78;;;;;;;;;;6179063;23;20020;-50
2024/04/06 03:42:25;;;;;;;806.45;40.78;;;;;;;;;;6179891;23;20036;-52
2024/04/06 03:45:17;;;;;;;854.72;41.88;;;;;;;;;;6179429;23;20021;-47
2024/04/06 03:48:04;;;;;;;1085.63;48.67;;;;;;;;;;6179133;23;20020;-58
2024/04/06 03:50:57;;;;;;;400.98;23.83;;;;;;;;;;6179315;23;20082;-66
2024/04/06 03:53:51;;;;;;;474.30;25.08;;;;;;;;;;6178452;23;20201;-66
2024/04/06 03:56:37;;;;;;;595.90;29.95;;;;;;;;;;6178415;23;20492;-65
2024/04/06 03:59:30;;;;;;;519.72;25.77;;;;;;;;;;6177490;23;20020;-65
2024/04/06 04:02:16;;;;;;;488.85;24.27;;;;;;;;;;6178024;23;20016;-66
2024/04/06 04:05:11;;;;;;;352.17;19.40;;;;;;;;;;6177403;23;20017;-65
2024/04/06 04:08:03;;;;;;;343.67;19.17;;;;;;;;;;6177968;23;20024;-50
2024/04/06 04:11:04;;;;;;;361.08;20.08;;;;;;;;;;6178839;23;20070;-47
2024/04/06 04:13:56;;;;;;;181.32;12.98;;;;;;;;;;6177061;23;20525;-49
2024/04/06 04:16:43;;;;;;;383.30;22.25;;;;;;;;;;6178432;23;20025;-60
2024/04/06 04:19:42;;;;;;;404.23;19.88;;;;;;;;;;6178512;23;20362;-57
2024/04/06 04:22:35;;;;;;;439.33;24.35;;;;;;;;;;6175163;23;20028;-58
2024/04/06 04:25:29;;;;;;;638.45;34.33;;;;;;;;;;6176957;23;20458;-55
2024/04/06 04:28:22;;;;;;;376.50;20.85;;;;;;;;;;6177431;23;20021;-58
2024/04/06 04:31:15;;;;;;;295.55;15.65;;;;;;;;;;6177925;23;20035;-58
2024/04/06 04:34:09;;;;;;;350.77;16.60;;;;;;;;;;6179094;23;20039;-61
2024/04/06 04:36:55;;;;;;;306.85;14.95;;;;;;;;;;6177410;23;20028;-61
2024/04/06 04:39:48;;;;;;;291.40;17.67;;;;;;;;;;6177523;23;20021;-61
2024/04/06 04:42:34;;;;;;;405.60;21.77;;;;;;;;;;6178700;23;20017;-61
2024/04/06 04:45:27;;;;;;;264.83;18.80;;;;;;;;;;6178880;23;20028;-65
2024/04/06 04:48:13;;;;;;;427.90;21.40;;;;;;;;;;6176658;23;20031;-61
2024/04/06 04:51:06;;;;;;;231.30;14.40;;;;;;;;;;6178144;23;20021;-60
2024/04/06 04:53:58;;;;;;;335.38;20.75;;;;;;;;;;6177417;23;20027;-60
2024/04/06 04:56:45;;;;;;;161.77;13.23;;;;;;;;;;6178690;23;20351;-61
2024/04/06 04:59:37;;;;;;;494.48;26.58;;;;;;;;;;6178749;23;20027;-60
2024/04/06 05:02:34;;;;;;;132.82;12.32;;;;;;;;;;6179246;23;20024;-61
2024/04/06 05:05:20;;;;;;;66.72;9.70;;;;;;;;;;6177918;23;20370;-47
2024/04/06 05:08:13;;;;;;;128.23;12.20;;;;;;;;;;6176180;23;20020;-46
2024/04/06 05:10:59;;;;;;;235.32;14.20;;;;;;;;;;6177254;23;20020;-53
2024/04/06 05:13:52;;;;;;;90.03;9.02;;;;;;;;;;6176496;23;20541;-60
2024/04/06 05:16:45;;;;;;;163.00;12.25;;;;;;;;;;6177513;23;20020;-61
2024/04/06 05:19:37;;;;;;;535.67;24.02;;;;;;;;;;6177206;23;20020;-61
2024/04/06 05:22:36;;;;;;;489.13;21.35;;;;;;;;;;6174108;23;20024;-61
2024/04/06 05:25:23;;;;;;;560.05;25.80;;;;;;;;;;6157572;23;20029;-60
2024/04/06 05:28:16;;;;;;;432.40;21.20;;;;;;;;;;6176801;23;20028;-61
2024/04/06 05:31:03;;;;;;;306.85;16.52;;;;;;;;;;6176895;23;20442;-61
2024/04/06 05:33:56;;;;;;;451.15;18.08;;;;;;;;;;6178052;23;20020;-61
2024/04/06 05:36:50;;;;;;;260.23;12.75;;;;;;;;;;6176811;23;20027;-61
2024/04/06 05:39:35;;;;;;;500.45;23.55;;;;;;;;;;6178429;23;20461;-61
2024/04/06 05:42:28;;;;;;;534.25;22.00;;;;;;;;;;6179396;23;20024;-48
2024/04/06 05:45:14;;;;;;;285.88;13.45;;;;;;;;;;6177942;23;20017;-61
2024/04/06 05:48:07;;;;;;;415.75;20.00;;;;;;;;;;6175533;23;20818;-61
2024/04/06 05:50:53;;;;;;;419.33;21.95;;;;;;;;;;6175522;23;20021;-60
2024/04/06 05:53:46;;;;;;;509.55;21.27;;;;;;;;;;6178813;23;20024;-60
2024/04/06 05:56:41;;;;;;;359.20;15.88;;;;;;;;;;6178017;23;20024;-61
2024/04/06 05:59:28;;;;;;;360.88;19.45;;;;;;;;;;6177695;23;20024;-60
2024/04/06 06:02:20;;;;;;;289.92;15.63;;;;;;;;;;6175580;23;20300;-60
2024/04/06 06:05:07;;;;;;;426.95;19.05;;;;;;;;;;6175703;23;20020;-61
2024/04/06 06:08:00;;;;;;;514.33;22.95;;;;;;;;;;6176399;23;20564;-60
2024/04/06 06:10:46;;;;;;;246.20;12.68;;;;;;;;;;6177033;23;20071;-57
2024/04/06 06:13:38;;;;;;;247.90;13.85;;;;;;;;;;6177035;23;20098;-63
2024/04/06 06:16:26;;;;;;;297.70;15.20;;;;;;;;;;6176208;23;20020;-63
2024/04/06 06:19:24;;;;;;;309.92;17.63;;;;;;;;;;6176234;23;20021;-63
2024/04/06 06:22:17;;;;;;;298.40;15.10;;;;;;;;;;6175770;23;20025;-63
2024/04/06 06:25:10;;;;;;;280.50;18.30;;;;;;;;;;6176697;23;20025;-63
2024/04/06 06:27:57;;;;;;;333.83;17.55;;;;;;;;;;6176496;23;20020;-63
2024/04/06 06:30:49;;;;;;;161.20;9.73;;;;;;;;;;6177208;23;20666;-62
2024/04/06 06:33:36;;;;;;;420.50;18.33;;;;;;;;;;6176446;23;20028;-64
2024/04/06 06:36:29;;;;;;;170.63;12.85;;;;;;;;;;6177143;23;20394;-63
2024/04/06 06:39:15;;;;;;;281.27;16.17;;;;;;;;;;6174203;23;20021;-64
2024/04/06 06:42:09;;;;;;;16.35;6.35;;;;;;;;;;6177405;23;20025;-61
2024/04/06 06:44:55;;;;;;;190.80;11.23;;;;;;;;;;6178805;23;20020;-60
2024/04/06 06:47:48;;;;;;;422.50;20.58;;;;;;;;;;6179003;23;20021;-60
2024/04/06 06:50:34;;;;;;;261.65;12.88;;;;;;;;;;6178289;23;20021;-61
2024/04/06 06:53:27;;;;;;;160.40;10.05;;;;;;;;;;6177496;23;20020;-61
2024/04/06 06:56:13;;;;;;;245.25;12.02;;;;;;;;;;6176406;23;20028;-61
2024/04/06 06:59:06;;;;;;;137.13;9.70;;;;;;;;;;6177865;23;20032;-57
2024/04/06 07:01:59;;;;;;;105.72;8.45;;;;;;;;;;6177447;23;20073;-56
2024/04/06 07:04:53;;;;;;;38.70;6.75;;;;;;;;;;6178850;23;20032;-57
2024/04/06 07:07:38;;;;;;;11.43;5.15;;;;;;;;;;6177757;23;20031;-58
2024/04/06 07:10:30;;;;;;;19.00;5.50;;;;;;;;;;6177874;23;20024;-60
2024/04/06 07:13:24;;;;;;;8.13;4.57;;;;;;;;;;6178614;23;20021;-60
2024/04/06 07:16:13;;;;;;;9.32;4.72;;;;;;;;;;6179697;23;20021;-60
2024/04/06 07:19:06;;;;;;;5.05;3.00;;;;;;;;;;6178399;23;20028;-60
2024/04/06 07:21:58;;;;;;;4.10;3.10;;;;;;;;;;6177332;23;20083;-60
2024/04/06 07:24:57;;;;;;;7.70;3.17;;;;;;;;;;6179653;23;20051;-64
2024/04/06 07:27:50;;;;;;;5.13;3.20;;;;;;;;;;6178975;23;20021;-64
2024/04/06 07:30:37;;;;;;;7.45;4.18;;;;;;;;;;6179999;23;20024;-65
2024/04/06 07:33:30;;;;;;;8.48;3.40;;;;;;;;;;6178457;23;20032;-64
2024/04/06 07:36:16;;;;;;;12.52;4.40;;;;;;;;;;6177832;23;20473;-51
2024/04/06 07:39:10;;;;;;;5.45;3.47;;;;;;;;;;6179320;23;20028;-63
2024/04/06 07:41:56;;;;;;;11.25;4.30;;;;;;;;;;6178618;23;20099;-63
2024/04/06 07:44:50;;;;;;;6.78;3.75;;;;;;;;;;6178677;23;20060;-63
2024/04/06 07:47:36;;;;;;;7.63;3.38;;;;;;;;;;6177024;23;20031;-64
2024/04/06 07:50:28;;;;;;;4.28;2.80;;;;;;;;;;6179534;23;20020;-63
2024/04/06 07:53:23;;;;;;;34.83;4.22;;;;;;;;;;6178412;23;20213;-51
2024/04/06 07:56:08;;;;;;;12.05;3.55;;;;;;;;;;6177139;23;20021;-51
2024/04/06 07:59:01;;;;;;;6.85;3.22;;;;;;;;;;6177965;23;20028;-53
2024/04/06 08:01:47;;;;;;;3.03;2.10;;;;;;;;;;6176169;23;20520;-54
2024/04/06 08:04:40;;;;;;;5.25;2.50;;;;;;;;;;6176602;23;20078;-49
2024/04/06 08:07:26;;;;;;;3.88;2.67;;;;;;;;;;6178245;23;20020;-62
2024/04/06 08:10:22;;;;;;;4.47;2.58;;;;;;;;;;6179831;23;20351;-62
2024/04/06 08:13:15;;;;;;;10.00;3.08;;;;;;;;;;6179178;23;20052;-63
2024/04/06 08:16:01;;;;;;;8.52;2.72;;;;;;;;;;6170300;23;20036;-62
2024/04/06 08:18:54;;;;;;;30.10;3.88;;;;;;;;;;6176113;23;20025;-63
2024/04/06 08:21:46;;;;;;;5.38;2.50;;;;;;;;;;6177042;23;20318;-64
2024/04/06 08:24:46;;;;;;;4.95;2.55;;;;;;;;;;6177432;23;20021;-49
2024/04/06 08:27:36;;;;;;;69.35;4.70;;;;;;;;;;6177620;23;20410;-56
2024/04/06 08:30:29;;;;;;;4.45;2.50;;;;;;;;;;6180204;23;20021;-55
2024/04/06 08:33:15;;;;;;;5.85;2.30;;;;;;;;;;6177255;23;20558;-56
2024/04/06 08:36:08;;;;;;;4.15;2.47;;;;;;;;;;6177234;23;20032;-57
2024/04/06 08:38:55;;;;;;;3.33;2.20;;;;;;;;;;6178108;23;20370;-57
2024/04/06 08:41:48;;;;;;;2.25;1.60;;;;;;;;;;6178236;23;20016;-54
2024/04/06 08:44:40;;;;;;;2.40;1.90;;;;;;;;;;6177806;23;20020;-58
2024/04/06 08:47:33;;;;;;;3.20;1.70;;;;;;;;;;6176341;23;20024;-56
2024/04/06 08:50:27;;;;;;;2.92;2.00;;;;;;;;;;6177575;23;20083;-61
2024/04/06 08:53:13;;;;;;;2.33;1.77;;;;;;;;;;6176864;23;20083;-63
2024/04/06 08:56:07;;;;;;;1.67;1.30;;;;;;;;;;6177373;23;20031;-64
2024/04/06 08:58:53;;;;;;;2.33;1.63;;;;;;;;;;6177237;23;20024;-63
2024/04/06 09:01:45;;;;;;;1.98;1.42;;;;;;;;;;6176033;23;20020;-64
2024/04/06 09:04:31;;;;;;;2.47;1.52;;;;;;;;;;6175882;23;20024;-64
2024/04/06 09:07:24;;;;;;;2.72;1.58;;;;;;;;;;6179150;23;20025;-63
2024/04/06 09:10:10;;;;;;;2.38;1.50;;;;;;;;;;6178309;23;20337;-61
2024/04/06 09:13:03;;;;;;;1.55;1.13;;;;;;;;;;6179186;23;20537;-61
2024/04/06 09:15:55;;;;;;;1.30;0.90;;;;;;;;;;6177222;23;20478;-62
2024/04/06 09:18:42;;;;;;;1.25;1.05;;;;;;;;;;6176409;23;20024;-51
2024/04/06 09:21:47;;;;;;;1.98;1.00;;;;;;;;;;6177143;23;20028;-52
2024/04/06 09:24:47;;;;;;;2.05;0.90;;;;;;;;;;6176508;23;20071;-61
2024/04/06 09:27:46;;;;;;;2.90;1.00;;;;;;;;;;6176246;23;20354;-60
2024/04/06 09:30:40;;;;;;;1.45;0.82;;;;;;;;;;6177993;23;20039;-60
2024/04/06 09:33:32;;;;;;;1.70;1.17;;;;;;;;;;6176281;23;20032;-60
2024/04/06 09:36:19;;;;;;;2.08;1.40;;;;;;;;;;6177824;23;20024;-61
2024/04/06 09:39:12;;;;;;;0.85;0.65;;;;;;;;;;6176607;23;20478;-50
2024/04/06 09:42:03;;;;;;;1.17;0.73;;;;;;;;;;6176978;23;20059;-52
2024/04/06 09:44:55;;;;;;;1.23;1.10;;;;;;;;;;6177162;23;20035;-49
2024/04/06 09:47:41;;;;;;;1.27;0.98;;;;;;;;;;6176719;23;20021;-65
2024/04/06 09:50:36;;;;;;;1.30;1.20;;;;;;;;;;6176180;23;20533;-56
2024/04/06 09:53:23;;;;;;;1.13;0.65;;;;;;;;;;6176546;23;20028;-53
2024/04/06 09:56:16;;;;;;;1.15;0.85;;;;;;;;;;6176916;23;20021;-57
2024/04/06 09:59:02;;;;;;;1.05;0.85;;;;;;;;;;6177453;23;20021;-56
2024/04/06 10:01:56;;;;;;;1.33;1.10;;;;;;;;;;6175842;23;20021;-55
2024/04/06 10:05:00;;;;;;;0.95;0.82;;;;;;;;;;6175572;23;20024;-55
2024/04/06 10:07:50;;;;;;;1.10;1.00;;;;;;;;;;6177581;23;20029;-60
2024/04/06 10:10:48;;;;;;;1.52;0.80;;;;;;;;;;6177391;23;20024;-60
2024/04/06 10:13:36;;;;;;;2.45;0.98;;;;;;;;;;6177308;23;20028;-61
2024/04/06 10:16:30;;;;;;;1.02;0.90;;;;;;;;;;6178156;23;20028;-60
2024/04/06 10:19:17;;;;;;;1.35;0.77;;;;;;;;;;6177417;23;20419;-60
2024/04/06 10:22:33;;;;;;;0.90;0.77;;;;;;;;;;6177912;23;20114;-61
2024/04/06 10:25:36;;;;;;;0.77;0.77;;;;;;;;;;6178480;23;20023;-60
2024/04/06 10:28:28;;;;;;;1.00;0.82;;;;;;;;;;6177938;23;20024;-60
2024/04/06 10:31:14;;;;;;;0.98;0.88;;;;;;;;;;6177445;23;20580;-61
2024/04/06 10:34:07;;;;;;;0.80;0.80;;;;;;;;;;6177898;23;20024;-60
2024/04/06 10:36:53;;;;;;;1.42;1.10;;;;;;;;;;6174967;23;20028;-60
2024/04/06 10:39:46;;;;;;;0.77;0.77;;;;;;;;;;6177081;23;20127;-61
2024/04/06 10:42:32;;;;;;;2.10;1.15;;;;;;;;;;6175436;23;20025;-61
2024/04/06 10:45:25;;;;;;;0.90;0.85;;;;;;;;;;6176778;23;20406;-60
2024/04/06 10:48:11;;;;;;;0.80;0.80;;;;;;;;;;6176654;23;20418;-61
2024/04/06 10:51:04;;;;;;;1.17;1.08;;;;;;;;;;6176508;23;20027;-61
2024/04/06 10:53:50;;;;;;;1.10;1.00;;;;;;;;;;6174959;23;20028;-61
2024/04/06 10:56:44;;;;;;;2.85;1.17;;;;;;;;;;6175359;23;20035;-60
2024/04/06 10:59:31;;;;;;;1.13;1.02;;;;;;;;;;6175074;23;20036;-61
2024/04/06 11:02:23;;;;;;;1.63;1.20;;;;;;;;;;6176846;23;20477;-58
2024/04/06 11:05:09;;;;;;;0.98;0.90;;;;;;;;;;6177008;23;20024;-51
2024/04/06 11:08:05;;;;;;;1.60;0.90;;;;;;;;;;6176325;23;20021;-50
2024/04/06 11:10:52;;;;;;;1.52;1.42;;;;;;;;;;6176682;23;20481;-50
2024/04/06 11:13:45;;;;;;;2.88;1.10;;;;;;;;;;6177233;23;20401;-60
2024/04/06 11:16:41;;;;;;;1.20;1.10;;;;;;;;;;6178449;23;20028;-60
2024/04/06 11:19:24;;;;;;;2.00;1.45;;;;;;;;;;6177608;23;20411;-61
2024/04/06 11:22:30;;;;;;;1.38;1.27;;;;;;;;;;6175940;23;20032;-60
2024/04/06 11:25:23;;;;;;;1.25;1.15;;;;;;;;;;6176516;23;20123;-60
2024/04/06 11:28:16;;;;;;;1.50;1.40;;;;;;;;;;6176286;23;20025;-60
2024/04/06 11:31:02;;;;;;;2.13;1.80;;;;;;;;;;6177843;23;20029;-51
2024/04/06 11:33:57;;;;;;;1.60;1.50;;;;;;;;;;6177052;23;20401;-48
2024/04/06 11:36:48;;;;;;;1.92;1.50;;;;;;;;;;6178338;23;20358;-45
2024/04/06 11:39:41;;;;;;;1.58;1.48;;;;;;;;;;6176787;23;20024;-48
2024/04/06 11:42:27;;;;;;;1.92;1.33;;;;;;;;;;6175038;23;20028;-60
2024/04/06 11:45:20;;;;;;;1.60;1.50;;;;;;;;;;6176570;23;20024;-49
2024/04/06 11:48:14;;;;;;;1.30;1.20;;;;;;;;;;6176869;23;20017;-47
2024/04/06 11:50:59;;;;;;;1.70;1.60;;;;;;;;;;6178600;23;20025;-50
2024/04/06 11:53:52;;;;;;;2.38;1.88;;;;;;;;;;6175453;23;20366;-46
2024/04/06 11:56:45;;;;;;;2.75;1.73;;;;;;;;;;6175918;23;20028;-50
2024/04/06 11:59:31;;;;;;;1.17;1.17;;;;;;;;;;6178897;23;20024;-65
2024/04/06 12:02:24;;;;;;;1.45;1.35;;;;;;;;;;6179054;23;20461;-63
2024/04/06 12:05:10;;;;;;;1.83;1.55;;;;;;;;;;6178076;23;20130;-65
2024/04/06 12:08:03;;;;;;;2.20;2.00;;;;;;;;;;6177185;23;20446;-64
2024/04/06 12:10:56;;;;;;;2.47;2.03;;;;;;;;;;6178986;23;20028;-49
2024/04/06 12:13:42;;;;;;;1.60;1.42;;;;;;;;;;6179361;23;20417;-59
2024/04/06 12:16:35;;;;;;;2.38;1.95;;;;;;;;;;6178264;23;20025;-58
2024/04/06 12:19:23;;;;;;;1.90;1.70;;;;;;;;;;6178848;23;20079;-58
2024/04/06 12:22:26;;;;;;;1.65;1.52;;;;;;;;;;6177753;23;20025;-58
2024/04/06 12:25:20;;;;;;;1.60;1.50;;;;;;;;;;6176472;23;20043;-58
2024/04/06 12:27:53;;;;;;;2.00;1.45;;;;;;;;;;6178276;23;20024;-59
2024/04/06 12:30:27;;;;;;;1.70;1.60;;;;;;;;;;6176807;23;20016;-51
2024/04/06 12:33:13;;;;;;;2.13;1.40;;;;;;;;;;6178079;23;20433;-61
2024/04/06 12:36:06;;;;;;;3.15;1.90;;;;;;;;;;6179146;23;20016;-61
2024/04/06 12:38:55;;;;;;;2.00;1.60;;;;;;;;;;6175741;23;20317;-61
2024/04/06 12:41:45;;;;;;;2.38;1.70;;;;;;;;;;6175883;23;20095;-61
2024/04/06 12:44:31;;;;;;;2.55;2.20;;;;;;;;;;6176331;23;20505;-61
2024/04/06 12:47:24;;;;;;;1.75;1.60;;;;;;;;;;6177896;23;20032;-63
2024/04/06 12:50:10;;;;;;;3.35;1.63;;;;;;;;;;6177319;23;20029;-64
2024/04/06 12:53:03;;;;;;;1.63;1.45;;;;;;;;;;6176652;23;20649;-64
2024/04/06 12:55:49;;;;;;;1.83;1.63;;;;;;;;;;6177838;23;20083;-64
2024/04/06 12:58:42;;;;;;;2.20;1.50;;;;;;;;;;6177125;23;20036;-64
2024/04/06 13:01:35;;;;;;;2.75;1.70;;;;;;;;;;6175869;23;20020;-63
2024/04/06 13:04:29;;;;;;;1.88;1.63;;;;;;;;;;6178493;23;20028;-61
2024/04/06 13:07:14;;;;;;;2.10;1.30;;;;;;;;;;6175299;23;20021;-63
2024/04/06 13:10:08;;;;;;;2.15;1.70;;;;;;;;;;6178392;23;20462;-49
2024/04/06 13:12:53;;;;;;;3.70;1.70;;;;;;;;;;6178091;23;20091;-50
2024/04/06 13:15:47;;;;;;;1.92;1.42;;;;;;;;;;6176235;23;20043;-50
2024/04/06 13:18:32;;;;;;;2.53;1.67;;;;;;;;;;6173218;23;20295;-47
2024/04/06 13:21:41;;;;;;;1.80;1.50;;;;;;;;;;6173421;23;20354;-47
2024/04/06 13:24:31;;;;;;;1.67;1.38;;;;;;;;;;6174800;23;20032;-60
2024/04/06 13:27:31;;;;;;;4.60;1.52;;;;;;;;;;6174570;23;20024;-60
2024/04/06 13:30:18;;;;;;;1.52;1.40;;;;;;;;;;6177286;23;20024;-60
2024/04/06 13:33:10;;;;;;;3.47;1.45;;;;;;;;;;6177590;23;20767;-60
2024/04/06 13:35:56;;;;;;;2.00;1.45;;;;;;;;;;6176241;23;20270;-60
2024/04/06 13:38:49;;;;;;;2.95;1.63;;;;;;;;;;6174946;23;20024;-60
2024/04/06 13:41:15;;;;;;;1.63;1.52;;;;;;;;;;6177377;23;20083;-50
2024/04/06 13:43:41;;;;;;;2.20;1.65;;;;;;;;;;6174386;23;20028;-61
2024/04/06 13:46:14;;;;;;;2.20;1.63;;;;;;;;;;6178255;23;20029;-65
2024/04/06 13:48:40;;;;;;;3.33;1.83;;;;;;;;;;6176702;23;20021;-65
2024/04/06 13:51:13;;;;;;;3.03;1.42;;;;;;;;;;6177294;23;20021;-65
2024/04/06 13:53:39;;;;;;;1.67;1.55;;;;;;;;;;6175872;23;20026;-66
2024/04/06 13:56:05;;;;;;;2.90;1.70;;;;;;;;;;6177618;23;20020;-66
2024/04/06 13:58:39;;;;;;;2.33;1.90;;;;;;;;;;6176294;23;20021;-66
2024/04/06 14:01:05;;;;;;;2.03;1.63;;;;;;;;;;6177030;23;20102;-60
2024/04/06 14:03:58;;;;;;;1.65;1.42;;;;;;;;;;6176706;23;20055;-59
2024/04/06 14:06:47;;;;;;;2.42;1.60;;;;;;;;;;6175359;23;20055;-59
2024/04/06 14:09:40;;;;;;;1.98;1.65;;;;;;;;;;6175642;23;20020;-59
2024/04/06 14:12:26;;;;;;;1.73;1.60;;;;;;;;;;6175044;23;20084;-59
2024/04/06 14:15:19;;;;;;;2.38;1.73;;;;;;;;;;6175776;23;20032;-59
2024/04/06 14:18:05;;;;;;;2.55;1.60;;;;;;;;;;6177748;23;20367;-49
2024/04/06 14:20:58;;;;;;;2.10;1.50;;;;;;;;;;6176617;23;20020;-62
2024/04/06 14:24:04;;;;;;;1.90;1.67;;;;;;;;;;6174995;23;20028;-51
2024/04/06 14:26:50;;;;;;;3.90;1.42;;;;;;;;;;6175607;23;20456;-47
2024/04/06 14:29:43;;;;;;;1.50;1.40;;;;;;;;;;6173167;23;20028;-50
2024/04/06 14:32:29;;;;;;;2.15;1.40;;;;;;;;;;6177087;23;20029;-53
2024/04/06 14:35:22;;;;;;;1.90;1.70;;;;;;;;;;6176559;23;20017;-51
2024/04/06 14:38:08;;;;;;;3.50;1.73;;;;;;;;;;6179287;23;20016;-60
2024/04/06 14:41:01;;;;;;;3.50;1.60;;;;;;;;;;6177268;23;20024;-61
2024/04/06 14:43:47;;;;;;;2.17;1.60;;;;;;;;;;6176067;23;20462;-61
2024/04/06 14:46:40;;;;;;;4.57;1.77;;;;;;;;;;6178182;23;20071;-62
2024/04/06 14:49:26;;;;;;;4.00;1.35;;;;;;;;;;6176893;23;20516;-62
2024/04/06 14:52:25;;;;;;;1.92;1.73;;;;;;;;;;6177509;23;20347;-61
2024/04/06 14:55:12;;;;;;;2.72;1.75;;;;;;;;;;6176077;23;20031;-59
2024/04/06 14:58:05;;;;;;;3.47;1.70;;;;;;;;;;6176099;23;20043;-61
2024/04/06 15:00:51;;;;;;;1.73;1.60;;;;;;;;;;6176364;23;20020;-61
2024/04/06 15:03:44;;;;;;;2.17;1.67;;;;;;;;;;6175704;23;20028;-60
2024/04/06 15:06:30;;;;;;;2.47;1.77;;;;;;;;;;6175632;23;20021;-60
2024/04/06 15:09:23;;;;;;;2.47;1.80;;;;;;;;;;6175041;23;20458;-60
2024/04/06 15:12:09;;;;;;;2.72;1.80;;;;;;;;;;6176948;23;20021;-60
2024/04/06 15:15:02;;;;;;;3.13;1.90;;;;;;;;;;6176193;23;20035;-60
2024/04/06 15:17:48;;;;;;;2.83;1.95;;;;;;;;;;6176010;23;20021;-60
2024/04/06 15:20:41;;;;;;;2.72;1.60;;;;;;;;;;6173700;23;20020;-59
2024/04/06 15:23:33;;;;;;;5.05;2.00;;;;;;;;;;6176538;23;20067;-59
2024/04/06 15:26:26;;;;;;;4.57;1.95;;;;;;;;;;6178903;23;20020;-60
2024/04/06 15:29:20;;;;;;;2.85;1.92;;;;;;;;;;6180283;23;20017;-59
2024/04/06 15:32:05;;;;;;;4.18;1.88;;;;;;;;;;6179916;23;20032;-60
2024/04/06 15:34:58;;;;;;;1.92;1.70;;;;;;;;;;6177860;23;20043;-61
2024/04/06 15:37:44;;;;;;;3.65;1.88;;;;;;;;;;6176964;23;20025;-60
2024/04/06 15:40:18;;;;;;;3.63;2.10;;;;;;;;;;6179546;23;20047;-60
2024/04/06 15:42:51;;;;;;;2.92;1.88;;;;;;;;;;6177601;23;20083;-60
2024/04/06 15:45:17;;;;;;;3.30;1.90;;;;;;;;;;6178016;23;20544;-60
2024/04/06 15:47:43;;;;;;;2.80;1.95;;;;;;;;;;6176759;23;20025;-61
2024/04/06 15:50:16;;;;;;;7.53;4.47;;;;;;;;;;6178681;23;20020;-51
2024/04/06 15:52:42;;;;;;;4.78;2.13;;;;;;;;;;6177804;23;20030;-60
2024/04/06 15:55:35;;;;;;;4.28;2.15;;;;;;;;;;6176189;23;20027;-61
2024/04/06 15:58:21;;;;;;;2.78;2.30;;;;;;;;;;6174725;23;20020;-62
2024/04/06 16:01:14;;;;;;;3.15;2.28;;;;;;;;;;6174711;23;20414;-61
2024/04/06 16:04:02;;;;;;;3.25;2.45;;;;;;;;;;6173535;23;20047;-61
2024/04/06 16:06:55;;;;;;;5.00;2.80;;;;;;;;;;6173633;23;20024;-60
2024/04/06 16:09:39;;;;;;;6.32;2.80;;;;;;;;;;6172907;23;20470;-61
2024/04/06 16:12:32;;;;;;;5.63;2.63;;;;;;;;;;6173065;23;20027;-62
2024/04/06 16:15:18;;;;;;;4.95;2.80;;;;;;;;;;6173108;23;20024;-61
2024/04/06 16:18:11;;;;;;;6.78;3.05;;;;;;;;;;6173734;23;20024;-60
2024/04/06 16:21:04;;;;;;;3.78;2.92;;;;;;;;;;6174859;23;20069;-60
2024/04/06 16:23:56;;;;;;;4.25;2.80;;;;;;;;;;6172425;23;20216;-61
2024/04/06 16:26:49;;;;;;;4.18;3.05;;;;;;;;;;6172500;23;20525;-51
2024/04/06 16:29:35;;;;;;;4.60;2.92;;;;;;;;;;6172559;23;20025;-52
2024/04/06 16:32:35;;;;;;;5.03;2.72;;;;;;;;;;6176407;23;20025;-61
2024/04/06 16:35:21;;;;;;;4.85;2.95;;;;;;;;;;6174864;23;20021;-61